sensor_id;sensor_type;location;lat;lon;timestamp;pressure;altitude;pressure_sealevel;temperature;humidity
41686;BME280;27370;42.764;23.432;2023-02-13T00:00:30;97341.69;;;-4.74;100.00
41686;BME280;27370;42.764;23.432;2023-02-13T00:02:56;97337.41;;;-4.75;100.00
41686;BME280;27370;42.764;23.432;2023-02-13T00:05:21;97341.94;;;-4.71;100.00
41686;BME280;27370;42.764;23.432;2023-02-13T00:07:47;97341.94;;;-4.66;100.00
41686;BME280;27370;42.764;23.432;2023-02-13T00:10:16;97345.63;;;-4.62;100.00
41686;BME280;27370;42.764;23.432;2023-02-13T00:12:41;97350.91;;;-4.62;100.00
41686;BME280;27370;42.764;23.432;2023-02-13T00:15:07;97357.00;;;-4.51;100.00
41686;BME280;27370;42.764;23.432;2023-02-13T00:17:33;97337.69;;;-4.46;100.00
41686;BME280;27370;42.764;23.432;2023-02-13T00:19:59;97351.91;;;-4.32;100.00
41686;BME280;27370;42.764;23.432;2023-02-13T00:22:24;97352.72;;;-4.26;100.00
41686;BME280;27370;42.764;23.432;2023-02-13T00:24:50;97351.31;;;-4.09;100.00
41686;BME280;27370;42.764;23.432;2023-02-13T00:27:16;97352.13;;;-4.08;100.00
41686;BME280;27370;42.764;23.432;2023-02-13T00:29:41;97353.19;;;-4.04;100.00
41686;BME280;27370;42.764;23.432;2023-02-13T00:32:07;97345.78;;;-4.02;100.00
41686;BME280;27370;42.764;23.432;2023-02-13T00:34:33;97351.03;;;-3.97;100.00
41686;BME280;27370;42.764;23.432;2023-02-13T00:37:01;97348.91;;;-3.95;100.00
41686;BME280;27370;42.764;23.432;2023-02-13T00:39:28;97338.56;;;-3.91;100.00
41686;BME280;27370;42.764;23.432;2023-02-13T00:41:54;97351.31;;;-3.98;100.00
41686;BME280;27370;42.764;23.432;2023-02-13T00:44:19;97358.13;;;-3.77;100.00
41686;BME280;27370;42.764;23.432;2023-02-13T00:46:45;97356.81;;;-3.80;100.00
41686;BME280;27370;42.764;23.432;2023-02-13T00:49:10;97347.81;;;-3.89;100.00
41686;BME280;27370;42.764;23.432;2023-02-13T00:51:36;97366.06;;;-3.87;100.00
41686;BME280;27370;42.764;23.432;2023-02-13T00:54:01;97350.25;;;-3.97;100.00
41686;BME280;27370;42.764;23.432;2023-02-13T00:56:27;97338.03;;;-3.88;100.00
41686;BME280;27370;42.764;23.432;2023-02-13T00:58:52;97360.69;;;-3.57;100.00
41686;BME280;27370;42.764;23.432;2023-02-13T01:01:18;97366.31;;;-3.74;100.00
41686;BME280;27370;42.764;23.432;2023-02-13T01:03:43;97355.78;;;-3.84;100.00
41686;BME280;27370;42.764;23.432;2023-02-13T01:06:09;97363.94;;;-3.85;100.00
41686;BME280;27370;42.764;23.432;2023-02-13T01:08:38;97358.53;;;-3.50;100.00
41686;BME280;27370;42.764;23.432;2023-02-13T01:11:04;97351.63;;;-3.51;100.00
41686;BME280;27370;42.764;23.432;2023-02-13T01:13:30;97354.09;;;-3.70;100.00
41686;BME280;27370;42.764;23.432;2023-02-13T01:15:56;97361.75;;;-3.63;100.00
41686;BME280;27370;42.764;23.432;2023-02-13T01:18:21;97354.34;;;-3.66;100.00
41686;BME280;27370;42.764;23.432;2023-02-13T01:21:05;97364.34;;;-3.53;100.00
41686;BME280;27370;42.764;23.432;2023-02-13T01:23:36;97361.19;;;-3.55;100.00
41686;BME280;27370;42.764;23.432;2023-02-13T01:26:07;97369.38;;;-3.51;100.00
41686;BME280;27370;42.764;23.432;2023-02-13T01:28:33;97356.47;;;-3.68;100.00
41686;BME280;27370;42.764;23.432;2023-02-13T01:30:59;97368.06;;;-3.54;100.00
41686;BME280;27370;42.764;23.432;2023-02-13T01:33:26;97368.06;;;-3.54;100.00
41686;BME280;27370;42.764;23.432;2023-02-13T01:35:52;97376.81;;;-3.53;100.00
41686;BME280;27370;42.764;23.432;2023-02-13T01:38:18;97376.75;;;-3.43;100.00
41686;BME280;27370;42.764;23.432;2023-02-13T01:40:53;97375.91;;;-3.33;100.00
41686;BME280;27370;42.764;23.432;2023-02-13T01:43:19;97368.50;;;-3.31;100.00
41686;BME280;27370;42.764;23.432;2023-02-13T01:45:51;97375.41;;;-3.35;100.00
41686;BME280;27370;42.764;23.432;2023-02-13T01:48:22;97379.59;;;-3.29;100.00
41686;BME280;27370;42.764;23.432;2023-02-13T01:50:55;97381.97;;;-3.28;100.00
41686;BME280;27370;42.764;23.432;2023-02-13T01:55:54;97372.41;;;-3.24;100.00
41686;BME280;27370;42.764;23.432;2023-02-13T01:58:24;97371.91;;;-3.26;100.00
41686;BME280;27370;42.764;23.432;2023-02-13T02:00:52;97373.97;;;-3.18;100.00
41686;BME280;27370;42.764;23.432;2023-02-13T02:03:24;97369.81;;;-3.29;100.00
41686;BME280;27370;42.764;23.432;2023-02-13T02:05:56;97379.41;;;-3.38;100.00
41686;BME280;27370;42.764;23.432;2023-02-13T02:08:23;97369.59;;;-3.37;100.00
41686;BME280;27370;42.764;23.432;2023-02-13T02:10:52;97375.81;;;-3.13;100.00
41686;BME280;27370;42.764;23.432;2023-02-13T02:13:21;97373.47;;;-3.25;100.00
41686;BME280;27370;42.764;23.432;2023-02-13T02:15:49;97376.16;;;-3.30;100.00
41686;BME280;27370;42.764;23.432;2023-02-13T02:18:17;97369.34;;;-3.46;100.00
41686;BME280;27370;42.764;23.432;2023-02-13T02:34:08;97378.25;;;-3.91;100.00
41686;BME280;27370;42.764;23.432;2023-02-13T02:36:43;97388.50;;;-3.59;100.00
41686;BME280;27370;42.764;23.432;2023-02-13T02:39:20;97387.44;;;-3.63;100.00
41686;BME280;27370;42.764;23.432;2023-02-13T02:42:06;97401.53;;;-3.88;100.00
41686;BME280;27370;42.764;23.432;2023-02-13T02:44:42;97405.97;;;-3.68;100.00
41686;BME280;27370;42.764;23.432;2023-02-13T02:50:25;97397.50;;;-3.60;100.00
41686;BME280;27370;42.764;23.432;2023-02-13T02:55:40;97396.00;;;-3.92;100.00
41686;BME280;27370;42.764;23.432;2023-02-13T02:58:24;97390.41;;;-3.85;100.00
41686;BME280;27370;42.764;23.432;2023-02-13T03:01:14;97413.91;;;-3.63;100.00
41686;BME280;27370;42.764;23.432;2023-02-13T03:03:59;97420.31;;;-3.75;100.00
41686;BME280;27370;42.764;23.432;2023-02-13T03:06:49;97411.31;;;-3.79;100.00
41686;BME280;27370;42.764;23.432;2023-02-13T03:09:22;97405.78;;;-3.87;100.00
41686;BME280;27370;42.764;23.432;2023-02-13T03:12:08;97387.00;;;-3.91;100.00
41686;BME280;27370;42.764;23.432;2023-02-13T03:14:55;97410.75;;;-3.71;100.00
41686;BME280;27370;42.764;23.432;2023-02-13T03:17:20;97396.50;;;-3.90;100.00
41686;BME280;27370;42.764;23.432;2023-02-13T03:20:52;97410.53;;;-3.89;100.00
41686;BME280;27370;42.764;23.432;2023-02-13T03:23:44;97420.34;;;-3.95;100.00
41686;BME280;27370;42.764;23.432;2023-02-13T03:26:31;97421.94;;;-3.99;100.00
41686;BME280;27370;42.764;23.432;2023-02-13T03:32:26;97410.88;;;-4.16;100.00
41686;BME280;27370;42.764;23.432;2023-02-13T03:35:36;97397.91;;;-4.18;100.00
41686;BME280;27370;42.764;23.432;2023-02-13T03:38:28;97407.19;;;-4.25;100.00
41686;BME280;27370;42.764;23.432;2023-02-13T03:41:03;97419.31;;;-4.09;100.00
41686;BME280;27370;42.764;23.432;2023-02-13T03:44:26;97416.16;;;-4.16;100.00
41686;BME280;27370;42.764;23.432;2023-02-13T03:46:52;97408.22;;;-4.16;100.00
41686;BME280;27370;42.764;23.432;2023-02-13T03:49:22;97406.38;;;-4.16;100.00
41686;BME280;27370;42.764;23.432;2023-02-13T03:52:10;97422.25;;;-4.36;100.00
41686;BME280;27370;42.764;23.432;2023-02-13T03:54:55;97421.47;;;-4.42;100.00
41686;BME280;27370;42.764;23.432;2023-02-13T03:57:42;97402.44;;;-4.64;100.00
41686;BME280;27370;42.764;23.432;2023-02-13T04:00:31;97422.00;;;-4.65;100.00
41686;BME280;27370;42.764;23.432;2023-02-13T04:03:16;97426.75;;;-4.62;100.00
41686;BME280;27370;42.764;23.432;2023-02-13T04:05:49;97424.78;;;-5.28;100.00
41686;BME280;27370;42.764;23.432;2023-02-13T04:08:16;97417.13;;;-5.29;100.00
41686;BME280;27370;42.764;23.432;2023-02-13T04:10:50;97427.50;;;-5.07;100.00
41686;BME280;27370;42.764;23.432;2023-02-13T04:13:23;97424.06;;;-5.03;100.00
41686;BME280;27370;42.764;23.432;2023-02-13T04:16:02;97433.03;;;-5.09;100.00
41686;BME280;27370;42.764;23.432;2023-02-13T04:18:32;97428.69;;;-5.45;100.00
41686;BME280;27370;42.764;23.432;2023-02-13T04:21:06;97437.25;;;-5.03;100.00
41686;BME280;27370;42.764;23.432;2023-02-13T04:23:32;97438.31;;;-5.04;100.00
41686;BME280;27370;42.764;23.432;2023-02-13T04:26:01;97432.75;;;-5.12;100.00
41686;BME280;27370;42.764;23.432;2023-02-13T04:28:28;97421.38;;;-5.23;100.00
41686;BME280;27370;42.764;23.432;2023-02-13T04:30:53;97411.09;;;-5.14;100.00
41686;BME280;27370;42.764;23.432;2023-02-13T04:33:19;97414.81;;;-5.20;100.00
41686;BME280;27370;42.764;23.432;2023-02-13T04:35:44;97413.97;;;-5.26;100.00
41686;BME280;27370;42.764;23.432;2023-02-13T04:38:10;97403.41;;;-5.36;100.00
41686;BME280;27370;42.764;23.432;2023-02-13T04:40:35;97414.94;;;-5.58;100.00
41686;BME280;27370;42.764;23.432;2023-02-13T04:43:01;97425.94;;;-5.76;100.00
41686;BME280;27370;42.764;23.432;2023-02-13T04:45:26;97431.38;;;-5.30;100.00
41686;BME280;27370;42.764;23.432;2023-02-13T04:47:53;97426.00;;;-5.66;100.00
41686;BME280;27370;42.764;23.432;2023-02-13T04:50:20;97423.88;;;-5.64;100.00
41686;BME280;27370;42.764;23.432;2023-02-13T04:52:46;97421.09;;;-5.21;100.00
41686;BME280;27370;42.764;23.432;2023-02-13T04:55:11;97428.53;;;-5.08;100.00
41686;BME280;27370;42.764;23.432;2023-02-13T04:57:37;97431.22;;;-4.83;100.00
41686;BME280;27370;42.764;23.432;2023-02-13T05:00:04;97421.44;;;-4.77;100.00
41686;BME280;27370;42.764;23.432;2023-02-13T05:02:30;97424.06;;;-5.03;100.00
41686;BME280;27370;42.764;23.432;2023-02-13T05:04:56;97430.13;;;-5.17;100.00
41686;BME280;27370;42.764;23.432;2023-02-13T05:07:21;97447.81;;;-5.03;100.00
41686;BME280;27370;42.764;23.432;2023-02-13T05:09:47;97433.91;;;-4.73;100.00
41686;BME280;27370;42.764;23.432;2023-02-13T05:12:12;97441.53;;;-4.81;100.00
41686;BME280;27370;42.764;23.432;2023-02-13T05:14:38;97436.47;;;-5.08;100.00
41686;BME280;27370;42.764;23.432;2023-02-13T05:17:03;97434.56;;;-5.33;100.00
41686;BME280;27370;42.764;23.432;2023-02-13T05:19:29;97440.34;;;-5.41;100.00
41686;BME280;27370;42.764;23.432;2023-02-13T05:21:54;97442.91;;;-5.57;100.00
41686;BME280;27370;42.764;23.432;2023-02-13T05:24:39;97450.34;;;-5.43;100.00
41686;BME280;27370;42.764;23.432;2023-02-13T05:27:05;97452.69;;;-5.52;100.00
41686;BME280;27370;42.764;23.432;2023-02-13T05:29:30;97453.97;;;-5.60;100.00
41686;BME280;27370;42.764;23.432;2023-02-13T05:31:56;97446.28;;;-5.66;100.00
41686;BME280;27370;42.764;23.432;2023-02-13T05:34:24;97457.66;;;-5.61;100.00
41686;BME280;27370;42.764;23.432;2023-02-13T05:36:50;97459.25;;;-5.65;100.00
41686;BME280;27370;42.764;23.432;2023-02-13T05:39:16;97472.38;;;-5.75;100.00
41686;BME280;27370;42.764;23.432;2023-02-13T05:41:43;97467.63;;;-5.73;100.00
41686;BME280;27370;42.764;23.432;2023-02-13T05:44:09;97460.75;;;-5.74;100.00
41686;BME280;27370;42.764;23.432;2023-02-13T05:46:36;97455.72;;;-5.80;100.00
41686;BME280;27370;42.764;23.432;2023-02-13T05:49:03;97473.94;;;-5.74;100.00
41686;BME280;27370;42.764;23.432;2023-02-13T05:51:28;97467.34;;;-5.76;100.00
41686;BME280;27370;42.764;23.432;2023-02-13T05:53:54;97484.84;;;-5.65;100.00
41686;BME280;27370;42.764;23.432;2023-02-13T05:56:19;97467.97;;;-5.59;100.00
41686;BME280;27370;42.764;23.432;2023-02-13T05:58:45;97466.94;;;-5.48;100.00
41686;BME280;27370;42.764;23.432;2023-02-13T06:01:10;97468.28;;;-5.45;100.00
41686;BME280;27370;42.764;23.432;2023-02-13T06:03:36;97477.03;;;-5.40;100.00
41686;BME280;27370;42.764;23.432;2023-02-13T06:06:01;97486.81;;;-5.30;100.00
41686;BME280;27370;42.764;23.432;2023-02-13T06:08:27;97477.41;;;-5.06;100.00
41686;BME280;27370;42.764;23.432;2023-02-13T06:10:52;97489.28;;;-5.03;100.00
41686;BME280;27370;42.764;23.432;2023-02-13T06:13:18;97496.47;;;-4.88;100.00
41686;BME280;27370;42.764;23.432;2023-02-13T06:15:44;97493.31;;;-4.85;100.00
41686;BME280;27370;42.764;23.432;2023-02-13T06:18:10;97491.72;;;-4.81;100.00
41686;BME280;27370;42.764;23.432;2023-02-13T06:20:35;97498.09;;;-4.72;100.00
41686;BME280;27370;42.764;23.432;2023-02-13T06:23:01;97503.66;;;-4.58;100.00
41686;BME280;27370;42.764;23.432;2023-02-13T06:25:27;97491.53;;;-4.44;100.00
41686;BME280;27370;42.764;23.432;2023-02-13T06:27:53;97491.25;;;-4.58;100.00
41686;BME280;27370;42.764;23.432;2023-02-13T06:30:18;97506.06;;;-4.47;100.00
41686;BME280;27370;42.764;23.432;2023-02-13T06:32:47;97474.88;;;-4.50;100.00
41686;BME280;27370;42.764;23.432;2023-02-13T06:35:14;97498.94;;;-4.36;100.00
41686;BME280;27370;42.764;23.432;2023-02-13T06:37:41;97501.84;;;-4.12;100.00
41686;BME280;27370;42.764;23.432;2023-02-13T06:40:09;97507.91;;;-3.91;100.00
41686;BME280;27370;42.764;23.432;2023-02-13T06:42:35;97498.63;;;-3.74;100.00
41686;BME280;27370;42.764;23.432;2023-02-13T06:45:00;97494.09;;;-3.63;100.00
41686;BME280;27370;42.764;23.432;2023-02-13T06:47:26;97502.25;;;-3.34;100.00
41686;BME280;27370;42.764;23.432;2023-02-13T06:49:51;97491.84;;;-3.20;100.00
41686;BME280;27370;42.764;23.432;2023-02-13T06:52:17;97491.84;;;-3.10;100.00
41686;BME280;27370;42.764;23.432;2023-02-13T06:54:42;97497.06;;;-3.00;100.00
41686;BME280;27370;42.764;23.432;2023-02-13T06:57:08;97492.28;;;-2.98;100.00
41686;BME280;27370;42.764;23.432;2023-02-13T06:59:33;97497.00;;;-2.85;100.00
41686;BME280;27370;42.764;23.432;2023-02-13T07:01:59;97496.91;;;-2.64;100.00
41686;BME280;27370;42.764;23.432;2023-02-13T07:04:24;97494.47;;;-2.61;100.00
41686;BME280;27370;42.764;23.432;2023-02-13T07:06:50;97492.88;;;-2.57;100.00
41686;BME280;27370;42.764;23.432;2023-02-13T07:09:15;97497.94;;;-2.21;100.00
41686;BME280;27370;42.764;23.432;2023-02-13T07:11:41;97496.81;;;-2.15;100.00
41686;BME280;27370;42.764;23.432;2023-02-13T07:14:07;97506.16;;;-1.89;100.00
41686;BME280;27370;42.764;23.432;2023-02-13T07:16:33;97498.34;;;-1.75;100.00
41686;BME280;27370;42.764;23.432;2023-02-13T07:18:58;97510.16;;;-1.62;100.00
41686;BME280;27370;42.764;23.432;2023-02-13T07:21:23;97512.53;;;-1.37;100.00
41686;BME280;27370;42.764;23.432;2023-02-13T07:23:52;97520.25;;;-1.35;100.00
41686;BME280;27370;42.764;23.432;2023-02-13T07:26:17;97508.38;;;-1.19;100.00
41686;BME280;27370;42.764;23.432;2023-02-13T07:28:43;97491.00;;;-1.11;100.00
41686;BME280;27370;42.764;23.432;2023-02-13T07:31:09;97500.22;;;-1.04;100.00
41686;BME280;27370;42.764;23.432;2023-02-13T07:33:36;97501.97;;;-0.75;100.00
41686;BME280;27370;42.764;23.432;2023-02-13T07:36:02;97500.84;;;-0.50;100.00
41686;BME280;27370;42.764;23.432;2023-02-13T07:38:31;97505.50;;;-0.23;100.00
41686;BME280;27370;42.764;23.432;2023-02-13T07:41:00;97499.97;;;-0.27;100.00
41686;BME280;27370;42.764;23.432;2023-02-13T07:43:27;97505.06;;;-0.12;100.00
41686;BME280;27370;42.764;23.432;2023-02-13T07:45:53;97499.66;;;-0.07;100.00
41686;BME280;27370;42.764;23.432;2023-02-13T07:48:21;97490.03;;;0.11;100.00
41686;BME280;27370;42.764;23.432;2023-02-13T07:50:47;97504.56;;;0.19;100.00
41686;BME280;27370;42.764;23.432;2023-02-13T07:53:12;97507.56;;;0.31;100.00
41686;BME280;27370;42.764;23.432;2023-02-13T07:55:38;97517.25;;;0.54;100.00
41686;BME280;27370;42.764;23.432;2023-02-13T07:58:04;97509.66;;;0.61;100.00
41686;BME280;27370;42.764;23.432;2023-02-13T08:00:29;97506.06;;;0.39;100.00
41686;BME280;27370;42.764;23.432;2023-02-13T08:02:58;97501.03;;;0.23;100.00
41686;BME280;27370;42.764;23.432;2023-02-13T08:05:24;97504.34;;;0.48;100.00
41686;BME280;27370;42.764;23.432;2023-02-13T08:07:50;97506.22;;;0.47;100.00
41686;BME280;27370;42.764;23.432;2023-02-13T08:10:16;97482.78;;;0.30;100.00
41686;BME280;27370;42.764;23.432;2023-02-13T08:13:00;97501.44;;;0.44;100.00
41686;BME280;27370;42.764;23.432;2023-02-13T08:15:26;97504.63;;;0.60;100.00
41686;BME280;27370;42.764;23.432;2023-02-13T08:17:51;97488.03;;;0.63;100.00
41686;BME280;27370;42.764;23.432;2023-02-13T08:20:17;97498.22;;;0.75;100.00
41686;BME280;27370;42.764;23.432;2023-02-13T08:22:43;97499.22;;;0.93;100.00
41686;BME280;27370;42.764;23.432;2023-02-13T08:25:08;97505.13;;;1.03;100.00
41686;BME280;27370;42.764;23.432;2023-02-13T08:27:34;97506.59;;;1.23;100.00
41686;BME280;27370;42.764;23.432;2023-02-13T08:30:00;97500.06;;;1.29;100.00
41686;BME280;27370;42.764;23.432;2023-02-13T08:32:28;97503.66;;;1.61;100.00
41686;BME280;27370;42.764;23.432;2023-02-13T08:34:53;97495.41;;;1.71;100.00
41686;BME280;27370;42.764;23.432;2023-02-13T08:37:19;97497.13;;;1.89;100.00
41686;BME280;27370;42.764;23.432;2023-02-13T08:39:44;97513.00;;;1.72;100.00
41686;BME280;27370;42.764;23.432;2023-02-13T08:42:10;97492.25;;;1.69;100.00
41686;BME280;27370;42.764;23.432;2023-02-13T08:44:35;97501.75;;;1.25;100.00
41686;BME280;27370;42.764;23.432;2023-02-13T08:47:02;97497.75;;;1.50;100.00
41686;BME280;27370;42.764;23.432;2023-02-13T08:49:31;97496.31;;;1.66;100.00
41686;BME280;27370;42.764;23.432;2023-02-13T08:52:01;97497.44;;;1.88;100.00
41686;BME280;27370;42.764;23.432;2023-02-13T08:54:27;97485.19;;;2.18;100.00
41686;BME280;27370;42.764;23.432;2023-02-13T08:56:54;97485.00;;;2.36;100.00
41686;BME280;27370;42.764;23.432;2023-02-13T08:59:19;97498.19;;;2.64;100.00
41686;BME280;27370;42.764;23.432;2023-02-13T09:01:45;97480.31;;;2.82;100.00
41686;BME280;27370;42.764;23.432;2023-02-13T09:04:11;97485.56;;;2.95;100.00
41686;BME280;27370;42.764;23.432;2023-02-13T09:06:36;97493.59;;;2.95;100.00
41686;BME280;27370;42.764;23.432;2023-02-13T09:09:04;97485.91;;;3.02;100.00
41686;BME280;27370;42.764;23.432;2023-02-13T09:11:29;97498.88;;;3.26;100.00
41686;BME280;27370;42.764;23.432;2023-02-13T09:13:55;97493.66;;;3.38;100.00
41686;BME280;27370;42.764;23.432;2023-02-13T09:16:20;97499.53;;;3.49;100.00
41686;BME280;27370;42.764;23.432;2023-02-13T09:18:47;97485.75;;;3.16;100.00
41686;BME280;27370;42.764;23.432;2023-02-13T09:21:13;97496.81;;;3.23;100.00
41686;BME280;27370;42.764;23.432;2023-02-13T09:23:39;97483.44;;;3.32;100.00
41686;BME280;27370;42.764;23.432;2023-02-13T09:26:10;97495.56;;;3.38;100.00
41686;BME280;27370;42.764;23.432;2023-02-13T09:28:37;97495.69;;;3.16;100.00
41686;BME280;27370;42.764;23.432;2023-02-13T09:31:17;97490.31;;;3.07;100.00
41686;BME280;27370;42.764;23.432;2023-02-13T09:33:44;97490.38;;;3.33;100.00
41686;BME280;27370;42.764;23.432;2023-02-13T09:36:13;97484.06;;;3.37;100.00
41686;BME280;27370;42.764;23.432;2023-02-13T09:38:40;97481.72;;;3.53;100.00
41686;BME280;27370;42.764;23.432;2023-02-13T09:41:21;97481.09;;;3.74;100.00
41686;BME280;27370;42.764;23.432;2023-02-13T09:43:55;97472.09;;;3.61;100.00
41686;BME280;27370;42.764;23.432;2023-02-13T09:46:34;97473.69;;;3.62;100.00
41686;BME280;27370;42.764;23.432;2023-02-13T09:49:05;97465.97;;;3.69;100.00
41686;BME280;27370;42.764;23.432;2023-02-13T09:51:32;97468.97;;;3.76;100.00
41686;BME280;27370;42.764;23.432;2023-02-13T09:54:01;97453.84;;;3.54;100.00
41686;BME280;27370;42.764;23.432;2023-02-13T09:56:50;97460.63;;;3.78;100.00
41686;BME280;27370;42.764;23.432;2023-02-13T09:59:36;97452.22;;;4.14;100.00
41686;BME280;27370;42.764;23.432;2023-02-13T10:18:53;97417.69;;;4.59;100.00
41686;BME280;27370;42.764;23.432;2023-02-13T10:21:27;97419.91;;;4.86;100.00
41686;BME280;27370;42.764;23.432;2023-02-13T10:24:00;97417.75;;;4.80;100.00
41686;BME280;27370;42.764;23.432;2023-02-13T10:26:38;97410.56;;;4.92;100.00
41686;BME280;27370;42.764;23.432;2023-02-13T10:29:21;97420.28;;;5.06;100.00
41686;BME280;27370;42.764;23.432;2023-02-13T10:32:08;97404.34;;;4.71;100.00
41686;BME280;27370;42.764;23.432;2023-02-13T10:34:36;97410.00;;;4.78;100.00
41686;BME280;27370;42.764;23.432;2023-02-13T10:37:18;97404.00;;;4.43;100.00
41686;BME280;27370;42.764;23.432;2023-02-13T10:39:48;97396.38;;;4.16;100.00
41686;BME280;27370;42.764;23.432;2023-02-13T10:45:32;97395.72;;;4.66;100.00
41686;BME280;27370;42.764;23.432;2023-02-13T10:50:55;97389.22;;;4.37;100.00
41686;BME280;27370;42.764;23.432;2023-02-13T10:53:50;97387.56;;;4.53;100.00
41686;BME280;27370;42.764;23.432;2023-02-13T10:56:25;97366.56;;;5.06;100.00
41686;BME280;27370;42.764;23.432;2023-02-13T10:59:08;97363.81;;;5.35;100.00
41686;BME280;27370;42.764;23.432;2023-02-13T11:01:52;97360.81;;;5.16;100.00
41686;BME280;27370;42.764;23.432;2023-02-13T11:04:20;97351.91;;;5.03;100.00
41686;BME280;27370;42.764;23.432;2023-02-13T11:07:00;97342.53;;;5.30;100.00
41686;BME280;27370;42.764;23.432;2023-02-13T11:09:27;97341.34;;;5.73;100.00
41686;BME280;27370;42.764;23.432;2023-02-13T11:11:54;97340.59;;;5.84;100.00
41686;BME280;27370;42.764;23.432;2023-02-13T11:14:20;97342.41;;;5.60;100.00
41686;BME280;27370;42.764;23.432;2023-02-13T11:16:56;97333.56;;;5.59;100.00
41686;BME280;27370;42.764;23.432;2023-02-13T11:19:32;97327.06;;;5.48;100.00
41686;BME280;27370;42.764;23.432;2023-02-13T11:22:03;97326.78;;;5.74;100.00
41686;BME280;27370;42.764;23.432;2023-02-13T11:24:30;97330.44;;;5.90;100.00
41686;BME280;27370;42.764;23.432;2023-02-13T11:27:04;97312.19;;;6.08;100.00
41686;BME280;27370;42.764;23.432;2023-02-13T11:29:35;97308.72;;;6.07;100.00
41686;BME280;27370;42.764;23.432;2023-02-13T11:34:39;97292.25;;;5.97;100.00
41686;BME280;27370;42.764;23.432;2023-02-13T11:39:36;97293.72;;;6.19;100.00
41686;BME280;27370;42.764;23.432;2023-02-13T11:42:03;97281.50;;;6.21;100.00
41686;BME280;27370;42.764;23.432;2023-02-13T11:44:36;97274.34;;;6.25;100.00
41686;BME280;27370;42.764;23.432;2023-02-13T11:47:02;97274.78;;;6.15;100.00
41686;BME280;27370;42.764;23.432;2023-02-13T11:49:30;97266.28;;;6.13;100.00
41686;BME280;27370;42.764;23.432;2023-02-13T11:52:02;97269.06;;;6.29;100.00
41686;BME280;27370;42.764;23.432;2023-02-13T11:56:59;97249.22;;;6.45;100.00
41686;BME280;27370;42.764;23.432;2023-02-13T11:59:28;97245.69;;;6.69;100.00
41686;BME280;27370;42.764;23.432;2023-02-13T12:04:49;97240.41;;;7.01;100.00
41686;BME280;27370;42.764;23.432;2023-02-13T12:09:53;97247.25;;;7.11;100.00
41686;BME280;27370;42.764;23.432;2023-02-13T12:12:29;97237.44;;;7.18;100.00
41686;BME280;27370;42.764;23.432;2023-02-13T12:14:57;97231.81;;;6.95;100.00
41686;BME280;27370;42.764;23.432;2023-02-13T12:17:26;97226.13;;;7.13;100.00
41686;BME280;27370;42.764;23.432;2023-02-13T12:19:54;97224.00;;;7.34;100.00
41686;BME280;27370;42.764;23.432;2023-02-13T12:22:52;97221.16;;;7.58;100.00
41686;BME280;27370;42.764;23.432;2023-02-13T12:28:11;97212.66;;;7.72;94.78
41686;BME280;27370;42.764;23.432;2023-02-13T12:30:58;97218.06;;;7.72;87.32
41686;BME280;27370;42.764;23.432;2023-02-13T12:36:18;97210.84;;;7.76;89.96
41686;BME280;27370;42.764;23.432;2023-02-13T12:44:22;97193.13;;;8.10;78.61
41686;BME280;27370;42.764;23.432;2023-02-13T12:58:11;97175.94;;;8.34;70.41
41686;BME280;27370;42.764;23.432;2023-02-13T13:03:41;97165.03;;;8.46;68.52
41686;BME280;27370;42.764;23.432;2023-02-13T13:12:22;97154.47;;;8.38;62.72
41686;BME280;27370;42.764;23.432;2023-02-13T13:17:58;97148.28;;;8.56;62.51
41686;BME280;27370;42.764;23.432;2023-02-13T13:26:36;97147.72;;;8.47;62.01
41686;BME280;27370;42.764;23.432;2023-02-13T13:29:05;97139.72;;;8.35;61.59
41686;BME280;27370;42.764;23.432;2023-02-13T13:31:34;97135.66;;;8.25;59.70
41686;BME280;27370;42.764;23.432;2023-02-13T13:34:03;97132.59;;;8.43;59.60
41686;BME280;27370;42.764;23.432;2023-02-13T13:36:39;97128.63;;;8.21;60.72
41686;BME280;27370;42.764;23.432;2023-02-13T13:39:26;97134.19;;;7.77;61.50
41686;BME280;27370;42.764;23.432;2023-02-13T13:44:49;97132.56;;;7.73;64.66
41686;BME280;27370;42.764;23.432;2023-02-13T13:49:54;97131.00;;;7.72;63.24
41686;BME280;27370;42.764;23.432;2023-02-13T13:54:49;97131.91;;;6.85;64.79
41686;BME280;27370;42.764;23.432;2023-02-13T14:02:42;97122.41;;;6.47;68.77
41686;BME280;27370;42.764;23.432;2023-02-13T14:05:20;97132.78;;;6.61;68.19
41686;BME280;27370;42.764;23.432;2023-02-13T14:07:52;97125.72;;;6.56;70.34
41686;BME280;27370;42.764;23.432;2023-02-13T14:18:20;97121.88;;;6.41;70.28
41686;BME280;27370;42.764;23.432;2023-02-13T14:36:37;97106.19;;;5.79;77.89
41686;BME280;27370;42.764;23.432;2023-02-13T14:39:19;97103.28;;;5.72;79.39
41686;BME280;27370;42.764;23.432;2023-02-13T14:44:33;97102.16;;;5.61;81.27
41686;BME280;27370;42.764;23.432;2023-02-13T14:47:03;97091.41;;;5.61;79.03
41686;BME280;27370;42.764;23.432;2023-02-13T14:49:34;97102.94;;;5.61;81.71
41686;BME280;27370;42.764;23.432;2023-02-13T14:52:05;97115.59;;;5.48;82.44
41686;BME280;27370;42.764;23.432;2023-02-13T14:54:38;97103.06;;;5.40;83.20
41686;BME280;27370;42.764;23.432;2023-02-13T14:57:44;97095.00;;;5.40;82.99
41686;BME280;27370;42.764;23.432;2023-02-13T15:03:19;97093.00;;;5.25;84.33
41686;BME280;27370;42.764;23.432;2023-02-13T15:05:51;97094.66;;;5.17;82.74
41686;BME280;27370;42.764;23.432;2023-02-13T15:08:25;97087.34;;;4.93;84.00
41686;BME280;27370;42.764;23.432;2023-02-13T15:10:54;97088.91;;;4.82;84.43
41686;BME280;27370;42.764;23.432;2023-02-13T15:13:33;97094.25;;;4.82;85.99
41686;BME280;27370;42.764;23.432;2023-02-13T15:16:07;97099.91;;;4.69;87.67
41686;BME280;27370;42.764;23.432;2023-02-13T15:21:03;97094.47;;;4.44;90.58
41686;BME280;27370;42.764;23.432;2023-02-13T15:23:30;97095.00;;;4.38;91.33
41686;BME280;27370;42.764;23.432;2023-02-13T15:25:58;97087.84;;;4.09;93.58
41686;BME280;27370;42.764;23.432;2023-02-13T15:28:25;97094.81;;;4.01;94.60